Relevés horaires Beauvechain (Belgique)


Relevés horaires à Beauvechain - Samedi 14 Juill. 2018
Heure UTC1 Température [°C] Vent [km/h] Hum. [%] Pres.4 [hPa] Visi. [Km] Nébu. [octa] Préc.5 [mm] Cond.
2m. Res. Ros. Dir.2 Vit. Moy. Raf.3
23:00 18.5 18.5 9.4 NNO 1.9 -- 3.7 55 1018.7(0.5/3h) 20 -- -- --
22:00 19.6 19.6 9.8 NNO 1.9 -- 3.7 53 1018.6(0.7/3h) 20 -- -- --
21:00 20.2 20.2 10.1 NNO 1.9 -- 7.4 52 1018.3(0.5/3h) 20 -- -- --
20:00 20.8 20.8 10.5 N 3.7 -- 7.4 52 1018.1(0.0/3h) 20 -- -- --
19:00 24.0 24.0 10.0 N 5.6 -- 7.4 41 1017.6(-0.5/3h) 20 -- -- --
18:00 25.7 25.7 8.9 N 5.6 -- 13.0 35 1017.6(-0.6/3h) 20 -- -- --
17:00 26.6 26.6 8.9 N 5.6 -- 11.1 33 1017.8(-0.7/3h) 20 -- -- --
16:00 26.4 26.4 8.3 NE 3.7 -- 13.0 32 1018(-1.0/3h) 20 -- -- --
15:00 26.3 26.3 9.0 N 3.7 -- 11.1 34 1018.2(-1.2/3h) 20 -- -- --
14:00 26.2 26.2 9.3 NNO 1.9 -- 11.1 34 1018.7(-1.2/3h) 20 -- -- --
13:00 26.2 26.2 9.7 N 3.7 -- 11.1 35 1019.1(-1.3/3h) 20 -- -- --
12:00 25.5 25.5 10.5 N 3.7 -- 11.1 39 1019.6(-1.2/3h) 20 -- -- --
11:00 24.2 24.2 11.2 NE 3.7 -- 9.3 44 1020.1(-1.0/3h) 20 -- -- --
10:00 22.8 22.8 12.3 NNO 1.9 -- 9.3 52 1020.6(-0.3/3h) 20 -- -- --
09:00 21.7 21.7 14.1 N 3.7 -- 9.3 62 1021(0.2/3h) 19 -- -- --
08:00 19.5 19.5 14.2 N 3.7 -- 5.6 71 1021.2(0.4/3h) 18 -- -- --
07:00 17.6 17.6 13.7 NNO 1.9 -- 5.6 78 1021.2(0.4/3h) 13 -- -- --
06:00 15.9 15.9 13.4 NNO 1.9 -- 5.6 85 1021(0.0/3h) 10 -- 0.1/12h
NA
05:00 14.3 14.3 12.9 NNO 1.9 -- 1.9 91 1021.1(0.1/3h) 7 -- -- --
04:00 13.8 13.8 12.6 NNO 1.9 -- 1.9 92 1020.8(-0.3/3h) 8 -- -- --
03:00 14.5 14.5 12.8 NNO 1.9 -- 5.6 90 1021.1(-0.3/3h) 9 -- -- NA
02:00 15.0 15.0 12.9 NNO 1.9 -- 3.7 87 1021(-0.3/3h) 4.6 -- -- NA
01:00 15.5 15.5 13.0 NNO 1.9 -- 5.6 85 1021.2(0.0/3h) 14 -- -- --
00:00 16.2 16.2 13.1 NNO 1.9 -- 9.3 82 1021.2(0.4/3h) 19 -- -- --

1 Coordinated Universal Time. Actuellement il est 13:00 locale et 11:00 UTC.

2 Le vent souffle depuis la direction indiquée vers la direction oposée.

3 Les rafales max. sont disponible 40 min après l'heure du relevé.

4 Pour les stations d'altitude (plus de 600m) le géopotentiel du niveau le plus proche de la pression obligatoire est indiqué.

5 Les stations disposant d'un diffuseur peuvent indiquer "trace". Cela signifie que des précipitations ont touchés le sol mais que la quantité est inférieure à 0.1 mm.

Récapitulatif de la journée
Température [°C] Vent [km/h] Ensoleillement4 [h] Precipitations totale5 [mm] Pression [Hpa]
Min1 Max.2 Moy.3 Max. Min Max.
13.8 27.3 0 13.0 0 h 0 min 0 1017.6 1021.2

1 Température minimale relevée entre 18:00 UTC la veille et 18:00 UTC le jour donné.

2 Température maximale relevée entre 06:00 UTC le jour donné et 06:00 UTC le lendemain.

3 Vent moyen de la journée basé sur les relevés horaires.

4 Ensoleillement en heures relevé entre 06:00 UTC la veille et 06:00 UTC le jour donné.

5 Précipitations totales tombées entre 06:00 UTC la jour donné et 06:00 UTC le lendemain.

Graphiques horaires